Latest Weather Observations for Broome

IDW60801

Issued at 8:05 pm WST Friday 28 November 2014 (issued every 30 minutes, with the page automatically refreshed every 10 minutes)

About weather observations | Map of weather stations | Latest weather observations for WA | Other Formats
Station Details ID: 003003 Name: BROOME AIRPORT Lat: -17.95 Lon: 122.24 Height: 7.42 m
Data from the previous 72 hours. | See also: Recent months at Broome
Date/Time
WST
Temp
°C
App
Temp
°C
Dew
Point
Rel
Hum
%
Delta-T
°C
Wind Press
QNH
hPa
Press
MSL
hPa
Rain
since 9 am
mm
Dir
 
Spd
km/h
Gust
km/h
Spd
kts
Gust
kts
28/08:00pm 30.5 34.3 25.3 74 3.7 WNW 15 24 8 13 1008.0 - 0.0
28/07:30pm 30.5 34.3 25.3 74 3.7 W 15 22 8 12 1007.9 - 0.0
28/07:00pm 30.6 34.5 25.5 74 3.6 WNW 15 24 8 13 1007.7 - 0.0
28/06:30pm 30.7 34.2 25.5 74 3.7 WNW 17 26 9 14 1007.2 - 0.0
28/06:00pm 31.0 34.1 25.4 72 4.0 WNW 19 30 10 16 1006.6 1006.5 0.0
28/05:30pm 31.5 34.0 25.3 69 4.4 W 22 32 12 17 1006.2 - 0.0
28/05:00pm 32.0 35.0 25.5 68 4.6 WNW 20 26 11 14 1006.2 - 0.0
28/04:30pm 32.6 35.1 25.3 65 5.2 WNW 22 30 12 16 1006.2 - 0.0
28/04:00pm 32.9 35.7 25.8 66 5.1 WNW 22 28 12 15 1005.8 - 0.0
28/03:30pm 33.1 35.4 25.7 65 5.3 WNW 24 33 13 18 1005.7 - 0.0
28/03:00pm 33.0 34.8 24.9 62 5.7 WNW 24 35 13 19 1006.0 1005.9 0.0
28/02:30pm 33.9 35.9 25.2 60 6.2 WNW 24 33 13 18 1006.2 - 0.0
28/02:00pm 33.0 34.3 24.6 61 5.9 W 26 35 14 19 1006.4 - 0.0
28/01:30pm 33.5 35.1 25.2 62 5.9 W 26 35 14 19 1006.8 - 0.0
28/01:00pm 33.9 35.4 23.7 55 7.1 W 22 30 12 16 1007.3 - 0.0
28/12:30pm 34.7 35.6 22.7 49 8.3 W 22 30 12 16 1007.8 - 0.0
28/12:00pm 35.2 36.3 23.1 49 8.4 WSW 22 28 12 15 1008.3 1008.2 0.0
28/11:30am 35.3 37.4 23.7 51 8.1 WSW 19 26 10 14 1008.8 - 0.0
28/11:00am 35.0 37.1 21.7 46 9.1 SSW 13 17 7 9 1009.1 - 0.0
28/10:30am 34.1 36.3 21.1 46 8.8 S 11 17 6 9 1009.6 - 0.0
28/10:00am 33.5 37.1 23.8 57 6.8 SSE 11 17 6 9 1010.0 - 0.0
28/09:30am 32.4 36.4 24.4 62 5.6 S 11 17 6 9 1010.5 - 0.0
28/09:00am 31.9 35.6 24.6 65 5.1 SSE 13 20 7 11 1010.6 1010.5 0.0
28/08:30am 31.0 34.6 24.3 67 4.7 SE 13 17 7 9 1010.9 - 0.0
28/08:00am 30.9 33.8 23.8 66 4.9 ESE 15 20 8 11 1011.1 - 0.0
28/07:30am 29.8 32.2 23.6 69 4.3 ESE 17 20 9 11 1010.8 - 0.0
28/07:00am 29.7 33.5 24.7 74 3.5 ESE 13 20 7 11 1010.4 - 0.0
28/06:30am 29.5 34.9 24.5 74 3.5 E 4 7 2 4 1010.1 - 0.0
28/06:00am 27.6 33.3 23.8 80 2.6 CALM 0 0 0 0 1009.7 1009.6 0.0
28/05:30am 26.0 31.6 23.5 86 1.7 CALM 0 4 0 2 1009.1 - 0.0
28/05:00am 26.7 31.7 23.2 81 2.4 NW 2 6 1 3 1008.6 - 0.0
28/04:30am 26.7 30.6 22.9 79 2.6 NW 7 9 4 5 1008.4 - 0.0
28/04:00am 26.4 30.2 22.7 80 2.5 W 7 9 4 5 1008.0 - 0.0
28/03:30am 26.2 30.0 22.7 81 2.4 NW 7 7 4 4 1007.7 - 0.0
28/03:00am 25.8 30.0 22.5 82 2.2 N 4 9 2 5 1007.4 1007.3 0.0
28/02:30am 25.1 28.8 22.3 84 1.9 NNE 6 7 3 4 1007.6 - 0.0
28/02:00am 25.6 29.2 22.3 82 2.2 N 7 9 4 5 1007.6 - 0.0
28/01:30am 25.5 29.3 22.4 83 2.1 NNE 6 9 3 5 1008.0 - 0.0
28/01:00am 25.7 29.3 22.4 82 2.2 ENE 7 11 4 6 1008.3 - 0.0
28/12:30am 25.6 29.6 22.8 84 1.9 NE 6 7 3 4 1008.4 - 0.0
28/12:00am 25.9 29.6 22.6 82 2.2 NE 7 9 4 5 1008.6 1008.5 0.0
 
Date/Time
WST
Temp
°C
App
Temp
°C
Dew
Point
Rel
Hum
%
Delta-T
°C
Wind Press
QNH
hPa
Press
MSL
hPa
Rain
since 9 am
mm
Dir
 
Spd
km/h
Gust
km/h
Spd
kts
Gust
kts
27/11:30pm 26.2 29.5 22.5 80 2.5 NE 9 13 5 7 1009.2 - 0.0
27/11:00pm 26.4 30.2 22.7 80 2.5 ENE 7 9 4 5 1009.3 - 0.0
27/10:30pm 26.9 30.2 22.6 77 2.9 E 9 11 5 6 1009.3 - 0.0
27/10:00pm 27.5 32.0 22.2 73 3.6 NNE 2 7 1 4 1009.2 - 0.0
27/09:30pm 27.8 30.3 21.8 70 4.0 NNE 11 15 6 8 1009.5 - 0.0
27/09:00pm 27.9 31.4 22.1 70 3.9 NE 7 9 4 5 1009.3 1009.2 0.0
27/08:30pm 28.0 31.8 22.4 71 3.8 NE 6 7 3 4 1009.0 - 0.0
27/08:00pm 28.5 31.1 22.0 68 4.4 NE 11 15 6 8 1008.7 - 0.0
27/07:30pm 29.1 32.6 22.2 66 4.7 NNE 7 9 4 5 1008.5 - 0.0
27/07:00pm 30.6 32.9 20.7 55 6.6 N 9 11 5 6 1008.2 - 0.0
27/06:30pm 30.7 33.8 21.5 58 6.2 NNE 7 11 4 6 1007.9 - 0.0
27/06:00pm 31.8 34.5 20.6 51 7.5 NNE 7 11 4 6 1007.4 1007.3 0.0
27/05:30pm 31.7 33.9 20.4 51 7.5 NNE 9 13 5 7 1007.6 - 0.0
27/05:00pm 31.6 33.0 21.0 53 7.1 E 15 24 8 13 1008.1 - 0.0
27/04:30pm 29.8 29.3 22.1 63 5.2 E 28 41 15 22 1008.4 - 0.0
27/04:00pm 29.2 28.9 22.6 67 4.5 E 28 41 15 22 1008.8 - 0.0
27/03:50pm 31.0 30.8 22.8 61 5.6 ESE 28 50 15 27 1008.3 - 0.0
27/03:30pm 33.4 36.4 22.0 51 7.8 W 9 13 5 7 1007.5 - 0.0
27/03:00pm 33.5 35.1 22.9 53 7.3 W 19 28 10 15 1006.9 1006.8 0.0
27/02:30pm 33.4 34.1 21.6 50 8.0 W 20 26 11 14 1006.7 - 0.0
27/02:00pm 33.6 34.5 22.6 52 7.6 WNW 22 32 12 17 1007.0 - 0.0
27/01:30pm 33.7 34.9 22.2 51 7.9 WNW 19 30 10 16 1007.5 - 0.0
27/01:00pm 33.7 35.4 24.0 57 6.8 WNW 22 30 12 16 1007.1 - 0.0
27/12:30pm 33.8 35.3 23.1 53 7.4 W 20 28 11 15 1007.6 - 0.0
27/12:00pm 34.8 36.1 22.3 48 8.6 W 19 24 10 13 1008.0 1007.9 0.0
27/11:30am 34.5 34.9 19.9 42 9.7 W 17 24 9 13 1008.2 - 0.0
27/11:00am 34.6 36.4 22.6 49 8.3 W 17 26 9 14 1008.7 - 0.0
27/10:30am 33.6 35.1 21.3 48 8.3 W 15 22 8 12 1009.1 - 0.0
27/10:00am 32.9 35.6 23.4 57 6.6 W 15 20 8 11 1009.3 - 0.0
27/09:30am 32.8 36.2 25.2 64 5.4 W 17 22 9 12 1009.0 - 0.0
27/09:00am 33.4 36.8 24.0 58 6.6 W 13 19 7 10 1009.2 1009.1 0.0
27/08:30am 32.6 35.7 23.5 58 6.3 WNW 13 19 7 10 1009.2 - 0.0
27/08:00am 32.2 35.7 23.6 60 6.0 W 11 15 6 8 1009.0 - 0.0
27/07:30am 32.1 35.9 24.1 62 5.6 W 11 15 6 8 1008.8 - 0.0
27/07:00am 31.3 35.2 24.3 66 4.9 W 11 17 6 9 1008.8 - 0.0
27/06:30am 30.8 35.4 24.8 70 4.2 NW 9 13 5 7 1008.5 - 0.0
27/06:00am 29.6 34.9 25.0 76 3.2 NNW 6 9 3 5 1008.5 1008.4 0.0
27/05:30am 28.1 33.1 24.8 82 2.3 N 7 9 4 5 1008.3 - 0.0
27/05:00am 27.6 32.3 24.9 85 1.9 NNE 9 11 5 6 1008.2 - 0.0
27/04:30am 28.6 35.0 24.9 80 2.6 CALM 0 0 0 0 1007.7 - 0.0
27/04:00am 29.5 34.7 25.1 77 3.1 WSW 7 9 4 5 1007.5 - 0.0
27/03:30am 29.7 34.1 25.0 76 3.3 WSW 11 13 6 7 1007.3 - 0.0
27/03:00am 29.8 34.4 24.7 74 3.6 WSW 9 13 5 7 1007.3 1007.2 0.0
27/02:30am 29.9 33.8 24.8 74 3.6 SW 13 17 7 9 1007.0 - 0.0
27/02:00am 30.0 34.6 24.7 73 3.7 WSW 9 13 5 7 1006.9 - 0.0
27/01:30am 30.1 34.3 24.7 73 3.8 W 11 17 6 9 1006.6 - 0.0
27/01:00am 30.1 33.8 24.5 72 3.9 W 13 19 7 10 1006.4 - 0.0
27/12:30am 30.1 33.9 24.7 73 3.8 W 13 19 7 10 1006.5 - 0.0
27/12:00am 30.1 34.5 25.0 74 3.6 WNW 11 19 6 10 1006.6 1006.5 0.0
 
Date/Time
WST
Temp
°C
App
Temp
°C
Dew
Point
Rel
Hum
%
Delta-T
°C
Wind Press
QNH
hPa
Press
MSL
hPa
Rain
since 9 am
mm
Dir
 
Spd
km/h
Gust
km/h
Spd
kts
Gust
kts
26/11:30pm 30.2 34.2 25.1 74 3.6 WNW 13 19 7 10 1006.7 - 0.0
26/11:00pm 30.5 33.6 24.2 69 4.4 WNW 15 20 8 11 1007.0 - 0.0
26/10:30pm 30.6 33.3 23.5 66 4.9 NW 15 24 8 13 1007.3 - 0.0
26/10:00pm 30.7 33.1 23.6 66 4.9 NW 17 28 9 15 1007.3 - 0.0
26/09:30pm 31.0 32.9 22.8 61 5.6 NW 17 26 9 14 1007.4 - 0.0
26/09:00pm 31.2 32.9 22.4 59 6.0 NNW 17 24 9 13 1007.4 1007.3 0.0
26/08:30pm 30.7 36.1 27.2 81 2.5 NNW 13 17 7 9 1007.0 - 0.0
26/08:00pm 30.8 35.8 27.1 80 2.7 NW 15 20 8 11 1006.4 - 0.0
26/07:30pm 31.2 36.0 26.8 77 3.2 NW 15 20 8 11 1005.8 - 0.0
26/07:00pm 31.7 35.0 25.1 68 4.7 NNW 17 22 9 12 1005.2 - 0.0
26/06:30pm 32.2 37.0 25.1 66 5.0 WSW 9 15 5 8 1004.4 - 0.0
26/06:00pm 32.9 36.0 24.8 62 5.7 WSW 17 20 9 11 1003.6 1003.5 0.0
26/05:30pm 34.5 36.8 24.4 55 7.1 WSW 20 26 11 14 1003.0 - 0.0
26/05:22pm 34.7 37.0 24.5 55 7.2 SW 20 28 11 15 1002.8 - 0.0
26/05:00pm 39.8 39.0 14.1 22 16.1 S 11 15 6 8 1002.6 - 0.0
26/04:30pm 40.1 38.5 12.9 20 16.7 SSE 13 19 7 10 1002.5 - 0.0
26/04:00pm 40.1 38.5 12.9 20 16.7 S 13 19 7 10 1002.6 - 0.0
26/03:30pm 40.3 39.2 14.2 21 16.4 SSE 13 20 7 11 1003.0 - 0.0
26/03:00pm 40.1 38.9 14.1 21 16.3 SSE 13 19 7 10 1003.2 1003.1 0.0
26/02:30pm 40.0 38.7 14.9 22 15.9 SSE 15 22 8 12 1003.7 - 0.0
26/02:00pm 39.6 38.1 15.2 23 15.5 SE 17 24 9 13 1004.0 - 0.0
26/01:30pm 39.5 37.6 15.8 24 15.1 SE 20 28 11 15 1004.3 - 0.0
26/01:00pm 38.0 36.7 17.2 29 13.5 ESE 20 26 11 14 1004.8 - 0.0
26/12:30pm 38.0 36.8 17.4 29 13.4 ESE 20 28 11 15 1005.4 - 0.0
26/12:00pm 37.7 36.6 17.8 31 13.0 ESE 20 28 11 15 1006.0 1005.9 0.0
26/11:30am 36.7 34.8 17.6 32 12.4 ESE 24 32 13 17 1006.6 - 0.0
26/11:00am 36.3 34.8 18.5 35 11.7 ESE 24 35 13 19 1007.3 - 0.0
26/10:30am 35.4 32.4 17.7 35 11.5 ESE 30 39 16 21 1008.0 - 0.0
26/10:00am 34.8 32.1 18.4 38 10.7 ESE 30 43 16 23 1008.6 - 0.0
26/09:30am 34.2 31.8 19.2 41 9.9 SE 30 44 16 24 1009.1 - 0.0
26/09:00am 32.8 29.7 18.5 42 9.3 ESE 32 44 17 24 1009.4 1009.3 0.2
26/08:30am 30.6 28.0 18.7 49 7.7 ESE 30 43 16 23 1009.7 - 0.2
26/08:00am 30.0 28.4 18.3 49 7.5 ESE 24 35 13 19 1009.7 - 0.2
26/07:30am 29.2 28.5 18.6 52 6.8 ESE 20 33 11 18 1009.5 - 0.2
26/07:00am 29.4 27.1 17.6 49 7.5 SE 26 35 14 19 1009.4 - 0.2
26/06:30am 28.8 27.3 17.8 51 7.0 S 22 33 12 18 1009.4 - 0.2
26/06:00am 28.9 27.7 17.5 50 7.2 S 20 32 11 17 1009.3 1009.2 0.2
26/05:30am 28.9 27.7 17.5 50 7.2 S 20 28 11 15 1008.6 - 0.2
26/05:00am 29.1 28.4 17.4 49 7.4 SSE 17 28 9 15 1008.0 - 0.2
26/04:30am 29.2 28.4 17.2 48 7.6 SSE 17 24 9 13 1007.3 - 0.2
26/04:00am 29.3 28.7 17.5 49 7.5 SSE 17 24 9 13 1007.3 - 0.2
26/03:35am 29.5 28.4 17.3 47 7.7 SE 19 28 10 15 1007.5 - 0.2
26/03:30am 29.5 28.9 17.5 48 7.6 SE 17 24 9 13 1007.3 - 0.2
26/03:00am 29.0 30.0 18.6 53 6.7 ESE 11 15 6 8 1007.0 1006.9 0.2
26/02:54am 29.2 30.1 18.3 51 7.0 SE 11 15 6 8 1006.9 - 0.2
26/02:30am 29.4 29.7 18.0 50 7.3 ESE 13 17 7 9 1007.3 - 0.2
26/02:00am 29.4 29.5 18.4 51 7.1 SE 15 20 8 11 1007.4 - 0.2
26/01:30am 29.8 29.9 18.3 50 7.4 SE 15 20 8 11 1007.3 - 0.2
26/01:03am 30.1 30.3 19.4 52 7.0 SE 17 24 9 13 1007.5 - 0.2
26/01:00am 30.2 30.5 19.5 52 7.0 SE 17 24 9 13 1007.6 - 0.2
26/12:52am 30.2 31.4 21.4 59 5.9 SE 17 26 9 14 1007.7 - 0.2
26/12:30am 30.4 33.1 24.2 69 4.3 S 17 24 9 13 1007.7 - 0.2
26/12:00am 30.2 33.7 25.4 75 3.4 SSW 17 24 9 13 1007.9 1007.8 0.2
 
Date/Time
WST
Temp
°C
App
Temp
°C
Dew
Point
Rel
Hum
%
Delta-T
°C
Wind Press
QNH
hPa
Press
MSL
hPa
Rain
since 9 am
mm
Dir
 
Spd
km/h
Gust
km/h
Spd
kts
Gust
kts
25/11:30pm 30.4 33.8 25.8 76 3.3 S 19 30 10 16 1008.4 - 0.2
25/11:00pm 30.2 34.3 25.7 77 3.2 SSW 15 20 8 11 1008.4 - 0.2
25/10:30pm 30.2 34.9 26.1 79 2.9 WSW 13 19 7 10 1007.8 - 0.2
25/10:00pm 30.0 34.6 25.9 78 2.9 W 13 22 7 12 1007.5 - 0.2
25/09:30pm 30.2 33.7 25.4 75 3.4 W 17 24 9 13 1007.1 - 0.2
25/09:00pm 30.0 33.9 25.5 77 3.2 W 15 22 8 12 1006.7 1006.6 0.2
25/08:30pm 30.1 34.0 25.4 76 3.3 WNW 15 20 8 11 1006.5 - 0.2

Other Formats:

Comma delimited format used in spreadsheet applications
http://www.bom.gov.au/fwo/IDW60801/IDW60801.94203.axf

JavaScript Object Notation format (JSON) in row-major order
http://www.bom.gov.au/fwo/IDW60801/IDW60801.94203.json